createdAt,value
2019-01-25T00:00:34.412Z,64.80
2019-01-25T00:01:34.385Z,64.69
2019-01-25T00:02:34.384Z,64.90
2019-01-25T00:03:34.364Z,63.54
2019-01-25T00:04:34.359Z,64.17
2019-01-25T00:05:34.346Z,64.28
2019-01-25T00:06:34.370Z,63.85
2019-01-25T00:07:34.322Z,62.81
2019-01-25T00:08:34.318Z,63.23
2019-01-25T00:09:34.303Z,63.96
2019-01-25T00:10:34.297Z,63.57
2019-01-25T00:11:34.289Z,64.09
2019-01-25T00:12:34.295Z,63.26
2019-01-25T00:13:34.263Z,63.46
2019-01-25T00:14:34.253Z,63.99
2019-01-25T00:15:34.245Z,64.51
2019-01-25T00:16:34.234Z,64.20
2019-01-25T00:17:34.224Z,64.09
2019-01-25T00:18:34.228Z,63.15
2019-01-25T00:19:34.208Z,62.31
2019-01-25T00:20:34.192Z,62.10
2019-01-25T00:21:34.176Z,62.10
2019-01-25T00:22:34.170Z,62.94
2019-01-25T00:23:34.160Z,62.62
2019-01-25T00:24:34.169Z,62.94
2019-01-25T00:25:34.138Z,62.31
2019-01-25T00:26:34.122Z,61.89
2019-01-25T00:27:34.113Z,62.31
2019-01-25T00:28:34.112Z,61.89
2019-01-25T00:29:34.096Z,63.04
2019-01-25T00:30:34.099Z,61.44
2019-01-25T00:31:34.081Z,61.99
2019-01-25T00:32:34.064Z,61.58
2019-01-25T00:33:34.064Z,61.89
2019-01-25T00:34:34.048Z,61.36
2019-01-25T00:35:34.032Z,61.68
2019-01-25T00:36:34.050Z,60.63
2019-01-25T00:37:34.019Z,61.16
2019-01-25T00:38:34.001Z,60.53
2019-01-25T00:39:33.990Z,62.23
2019-01-25T00:40:33.984Z,62.73
2019-01-25T00:41:33.974Z,62.31
2019-01-25T00:42:33.980Z,63.36
2019-01-25T00:43:33.952Z,62.94
2019-01-25T00:44:33.942Z,62.55
2019-01-25T00:45:33.936Z,61.92
2019-01-25T00:46:33.923Z,63.07
2019-01-25T00:47:33.913Z,63.91
2019-01-25T00:48:33.920Z,62.55
2019-01-25T00:49:33.888Z,63.07
2019-01-25T00:50:33.881Z,63.18
2019-01-25T00:51:33.875Z,62.55
2019-01-25T00:52:33.864Z,62.76
2019-01-25T00:53:33.852Z,62.65
2019-01-25T00:54:33.864Z,63.60
2019-01-25T00:55:33.829Z,63.39
2019-01-25T00:56:33.819Z,62.02
2019-01-25T00:57:33.810Z,61.92
2019-01-25T00:58:33.793Z,61.99
2019-01-25T00:59:33.787Z,62.41
2019-01-25T01:00:33.800Z,61.92
2019-01-25T01:01:33.765Z,63.18
2019-01-25T01:02:33.755Z,62.23
2019-01-25T01:03:33.743Z,62.34
2019-01-25T01:04:33.733Z,63.18
2019-01-25T01:05:33.726Z,63.39
2019-01-25T01:06:33.729Z,62.55
2019-01-25T01:07:33.703Z,62.86
2019-01-25T01:08:33.694Z,63.91
2019-01-25T01:09:33.684Z,64.12
2019-01-25T01:10:33.678Z,64.33
2019-01-25T01:11:33.663Z,64.02
2019-01-25T01:12:33.669Z,63.49
2019-01-25T01:13:33.643Z,63.07
2019-01-25T01:14:33.631Z,63.60
2019-01-25T01:15:33.623Z,62.86
2019-01-25T01:16:33.621Z,62.86
2019-01-25T01:17:33.602Z,62.68
2019-01-25T01:18:33.608Z,62.13
2019-01-25T01:19:33.583Z,63.18
2019-01-25T01:20:33.580Z,63.18
2019-01-25T01:21:33.557Z,63.91
2019-01-25T01:22:33.550Z,64.02
2019-01-25T01:23:33.588Z,63.18
2019-01-25T01:24:33.544Z,63.04
2019-01-25T01:25:33.519Z,63.18
2019-01-25T01:26:33.509Z,62.97
2019-01-25T01:27:33.496Z,63.81
2019-01-25T01:28:33.493Z,64.43
2019-01-25T01:29:33.478Z,64.02
2019-01-25T01:30:33.483Z,62.23
2019-01-25T01:31:33.463Z,61.92
2019-01-25T01:32:33.453Z,62.76
2019-01-25T01:33:33.433Z,62.65
2019-01-25T01:34:33.426Z,62.65
2019-01-25T01:35:33.416Z,64.02
2019-01-25T01:36:33.439Z,64.02
2019-01-25T01:37:33.394Z,63.39
2019-01-25T01:38:33.391Z,62.55
2019-01-25T01:39:33.405Z,63.07
2019-01-25T01:40:33.356Z,63.49
2019-01-25T01:41:33.359Z,63.07
2019-01-25T01:42:33.375Z,62.86
2019-01-25T01:43:33.333Z,63.39
2019-01-25T01:44:33.321Z,63.39
2019-01-25T01:45:33.312Z,62.76
2019-01-25T01:46:33.324Z,63.28
2019-01-25T01:47:33.288Z,62.65
2019-01-25T01:48:33.307Z,62.97
2019-01-25T01:49:33.269Z,63.49
2019-01-25T01:50:33.260Z,62.34
2019-01-25T01:51:33.244Z,61.53
2019-01-25T01:52:33.237Z,62.37
2019-01-25T01:53:33.237Z,63.10
2019-01-25T01:54:33.240Z,63.63
2019-01-25T01:55:33.211Z,62.05
2019-01-25T01:56:33.205Z,62.58
2019-01-25T01:57:33.186Z,62.89
2019-01-25T01:58:33.170Z,61.84
2019-01-25T01:59:33.170Z,62.16
2019-01-25T02:00:33.164Z,62.26
2019-01-25T02:01:33.144Z,63.21
2019-01-25T02:02:33.128Z,63.31
2019-01-25T02:03:33.122Z,63.42
2019-01-25T02:04:33.119Z,63.94
2019-01-25T02:05:33.109Z,64.04
2019-01-25T02:06:33.125Z,63.28
2019-01-25T02:07:33.080Z,62.37
2019-01-25T02:08:33.080Z,61.60
2019-01-25T02:09:33.059Z,61.82
2019-01-25T02:10:33.050Z,61.82
2019-01-25T02:11:33.040Z,62.23
2019-01-25T02:12:33.059Z,63.18
2019-01-25T02:13:33.024Z,62.23
2019-01-25T02:14:33.018Z,62.76
2019-01-25T02:15:33.001Z,62.86
2019-01-25T02:16:32.993Z,62.97
2019-01-25T02:17:32.976Z,62.76
2019-01-25T02:18:32.989Z,62.65
2019-01-25T02:19:32.963Z,62.34
2019-01-25T02:20:32.948Z,61.40
2019-01-25T02:21:32.935Z,61.40
2019-01-25T02:22:32.930Z,61.71
2019-01-25T02:23:32.918Z,62.45
2019-01-25T02:24:32.921Z,61.18
2019-01-25T02:25:32.899Z,60.77
2019-01-25T02:26:32.886Z,61.74
2019-01-25T02:27:32.877Z,60.66
2019-01-25T02:28:32.871Z,61.21
2019-01-25T02:29:32.896Z,60.58
2019-01-25T02:30:32.871Z,60.69
2019-01-25T02:31:32.836Z,60.69
2019-01-25T02:32:32.832Z,60.69
2019-01-25T02:33:32.814Z,61.77
2019-01-25T02:34:32.819Z,62.47
2019-01-25T02:35:32.797Z,61.87
2019-01-25T02:36:32.811Z,60.93
2019-01-25T02:37:32.769Z,60.19
2019-01-25T02:38:32.766Z,60.95
2019-01-25T02:39:32.761Z,62.08
2019-01-25T02:40:38.705Z,60.22
2019-01-25T02:41:33.760Z,62.01
2019-01-25T02:42:33.306Z,61.79
2019-01-25T02:43:32.716Z,62.32
2019-01-25T02:44:32.701Z,61.71
2019-01-25T02:45:32.698Z,61.82
2019-01-25T02:46:32.695Z,60.66
2019-01-25T02:47:32.718Z,62.35
2019-01-25T02:48:32.659Z,62.55
2019-01-25T02:49:32.653Z,61.30
2019-01-25T02:50:32.637Z,62.55
2019-01-25T02:51:32.639Z,61.93
2019-01-25T02:52:32.621Z,62.87
2019-01-25T02:53:32.619Z,62.77
2019-01-25T02:54:32.598Z,62.55
2019-01-25T02:55:32.588Z,62.35
2019-01-25T02:56:32.579Z,60.24
2019-01-25T02:57:32.573Z,60.69
2019-01-25T02:58:32.556Z,60.59
2019-01-25T02:59:32.558Z,62.27
2019-01-25T03:00:32.546Z,60.98
2019-01-25T03:01:32.578Z,60.46
2019-01-25T03:02:32.516Z,60.98
2019-01-25T03:03:32.508Z,62.03
2019-01-25T03:04:32.494Z,62.13
2019-01-25T03:05:32.498Z,61.40
2019-01-25T03:06:32.473Z,60.22
2019-01-25T03:07:32.464Z,60.24
2019-01-25T03:08:32.454Z,60.56
2019-01-25T03:09:32.448Z,60.35
2019-01-25T03:10:32.429Z,60.24
2019-01-25T03:11:32.427Z,60.46
2019-01-25T03:12:32.407Z,60.66
2019-01-25T03:13:32.410Z,61.19
2019-01-25T03:14:32.385Z,61.11
2019-01-25T03:15:32.385Z,61.64
2019-01-25T03:16:32.370Z,61.96
2019-01-25T03:17:32.403Z,63.75
2019-01-25T03:18:32.341Z,65.00
2019-01-25T03:19:32.332Z,63.11
2019-01-25T03:20:32.335Z,62.72
2019-01-25T03:21:32.322Z,62.82
2019-01-25T03:22:32.305Z,62.51
2019-01-25T03:23:32.315Z,63.75
2019-01-25T03:24:32.283Z,64.29
2019-01-25T03:25:32.269Z,63.98
2019-01-25T03:26:32.262Z,63.46
2019-01-25T03:27:32.254Z,63.38
2019-01-25T03:28:32.246Z,63.98
2019-01-25T03:29:32.243Z,63.98
2019-01-25T03:30:32.306Z,64.83
2019-01-25T03:31:32.212Z,64.64
2019-01-25T03:32:32.209Z,64.40
2019-01-25T03:33:32.189Z,64.61
2019-01-25T03:34:32.182Z,64.19
2019-01-25T03:35:32.189Z,64.16
2019-01-25T03:36:32.164Z,63.77
2019-01-25T03:37:32.147Z,63.04
2019-01-25T03:38:32.173Z,63.01
2019-01-25T03:39:32.129Z,63.14
2019-01-25T03:40:32.124Z,63.04
2019-01-25T03:41:32.115Z,63.56
2019-01-25T03:42:32.093Z,64.40
2019-01-25T03:43:32.080Z,64.61
2019-01-25T03:44:32.073Z,64.83
2019-01-25T03:45:32.066Z,64.51
2019-01-25T03:46:32.056Z,63.88
2019-01-25T03:47:32.071Z,63.35
2019-01-25T03:48:32.031Z,63.67
2019-01-25T03:49:32.031Z,64.19
2019-01-25T03:50:32.005Z,63.77
2019-01-25T03:51:39.042Z,63.98
2019-01-25T03:52:31.989Z,64.09
2019-01-25T03:53:31.991Z,64.09
2019-01-25T03:54:31.973Z,64.61
2019-01-25T03:55:31.967Z,64.83
2019-01-25T03:56:31.945Z,64.09
2019-01-25T03:57:31.938Z,64.48
2019-01-25T03:58:31.924Z,64.51
2019-01-25T03:59:31.938Z,64.19
2019-01-25T04:00:31.903Z,64.29
2019-01-25T04:01:31.893Z,64.29
2019-01-25T04:02:31.890Z,64.51
2019-01-25T04:03:31.877Z,65.03
2019-01-25T04:04:31.867Z,65.38
2019-01-25T04:05:31.885Z,65.80
2019-01-25T04:06:31.844Z,66.43
2019-01-25T04:07:31.835Z,65.91
2019-01-25T04:08:31.816Z,66.85
2019-01-25T04:09:31.812Z,66.43
2019-01-25T04:10:31.798Z,66.04
2019-01-25T04:11:31.825Z,65.83
2019-01-25T04:12:31.781Z,65.83
2019-01-25T04:13:31.772Z,65.62
2019-01-25T04:14:31.762Z,66.36
2019-01-25T04:15:31.744Z,65.52
2019-01-25T04:16:31.737Z,66.56
2019-01-25T04:17:31.755Z,66.39
2019-01-25T04:18:31.750Z,66.39
2019-01-25T04:19:31.708Z,66.81
2019-01-25T04:20:31.700Z,67.23
2019-01-25T04:21:31.690Z,67.76
2019-01-25T04:22:31.683Z,67.86
2019-01-25T04:23:31.691Z,68.07
2019-01-25T04:24:31.659Z,67.13
2019-01-25T04:25:31.649Z,67.13
2019-01-25T04:26:31.638Z,68.07
2019-01-25T04:27:31.626Z,67.86
2019-01-25T04:28:31.621Z,67.79
2019-01-25T04:29:31.623Z,67.13
2019-01-25T04:30:32.824Z,67.05
2019-01-25T04:31:31.590Z,67.16
2019-01-25T04:32:31.572Z,67.76
2019-01-25T04:33:31.568Z,67.44
2019-01-25T04:34:31.557Z,68.00
2019-01-25T04:35:31.566Z,68.21
2019-01-25T04:36:31.539Z,68.42
2019-01-25T04:37:31.528Z,68.32
2019-01-25T04:38:31.511Z,68.52
2019-01-25T04:39:31.506Z,68.42
2019-01-25T04:40:31.495Z,67.79
2019-01-25T04:41:31.500Z,67.16
2019-01-25T04:42:31.473Z,67.16
2019-01-25T04:43:31.462Z,68.32
2019-01-25T04:44:31.458Z,68.52
2019-01-25T04:45:31.446Z,68.52
2019-01-25T04:46:31.431Z,68.52
2019-01-25T04:47:31.449Z,67.79
2019-01-25T04:48:31.414Z,66.84
2019-01-25T04:49:31.401Z,67.26
2019-01-25T04:50:31.388Z,67.40
2019-01-25T04:51:31.379Z,67.71
2019-01-25T04:52:31.371Z,67.74
2019-01-25T04:53:31.380Z,68.27
2019-01-25T04:54:31.358Z,69.96
2019-01-25T04:55:31.343Z,69.64
2019-01-25T04:56:31.333Z,71.86
2019-01-25T04:57:31.327Z,70.35
2019-01-25T04:58:31.314Z,69.71
2019-01-25T04:59:31.324Z,69.19
2019-01-25T05:00:31.294Z,68.03
2019-01-25T05:01:31.284Z,68.35
2019-01-25T05:02:31.279Z,68.24
2019-01-25T05:03:31.258Z,68.98
2019-01-25T05:04:31.248Z,69.09
2019-01-25T05:05:31.300Z,68.77
2019-01-25T05:06:31.229Z,69.19
2019-01-25T05:07:31.225Z,68.98
2019-01-25T05:08:31.212Z,68.35
2019-01-25T05:09:31.197Z,68.45
2019-01-25T05:10:31.200Z,68.13
2019-01-25T05:11:31.234Z,68.24
2019-01-25T05:12:31.192Z,68.35
2019-01-25T05:13:31.774Z,68.03
2019-01-25T05:14:31.152Z,69.19
2019-01-25T05:15:31.140Z,69.12
2019-01-25T05:16:31.130Z,69.64
2019-01-25T05:17:31.165Z,69.96
2019-01-25T05:18:31.111Z,69.75
2019-01-25T05:19:31.101Z,69.64
2019-01-25T05:20:31.117Z,69.96
2019-01-25T05:21:31.101Z,69.54
2019-01-25T05:22:31.069Z,69.54
2019-01-25T05:23:31.102Z,69.64
2019-01-25T05:24:31.076Z,69.64
2019-01-25T05:25:31.046Z,69.40
2019-01-25T05:26:31.032Z,69.75
2019-01-25T05:27:31.017Z,70.35
2019-01-25T05:28:31.026Z,69.82
2019-01-25T05:29:31.057Z,68.66
2019-01-25T05:30:30.987Z,69.19
2019-01-25T05:31:30.976Z,69.51
2019-01-25T05:32:30.966Z,69.61
2019-01-25T05:33:30.952Z,69.19
2019-01-25T05:34:30.951Z,69.19
2019-01-25T05:35:30.982Z,69.93
2019-01-25T05:36:30.926Z,69.40
2019-01-25T05:37:30.910Z,69.85
2019-01-25T05:38:30.903Z,69.51
2019-01-25T05:39:30.893Z,69.19
2019-01-25T05:40:30.883Z,68.13
2019-01-25T05:41:30.921Z,68.13
2019-01-25T05:42:30.862Z,69.09
2019-01-25T05:43:30.855Z,69.71
2019-01-25T05:44:30.839Z,69.19
2019-01-25T05:45:30.831Z,69.22
2019-01-25T05:46:30.823Z,69.40
2019-01-25T05:47:30.856Z,69.96
2019-01-25T05:48:30.806Z,69.96
2019-01-25T05:49:30.789Z,69.85
2019-01-25T05:50:30.781Z,69.54
2019-01-25T05:51:33.684Z,69.32
2019-01-25T05:52:30.756Z,69.54
2019-01-25T05:53:31.514Z,69.54
2019-01-25T05:54:30.736Z,69.93
2019-01-25T05:55:30.742Z,70.38
2019-01-25T05:56:30.714Z,69.82
2019-01-25T05:57:30.715Z,70.67
2019-01-25T05:58:30.701Z,70.45
2019-01-25T05:59:30.737Z,70.70
2019-01-25T06:00:30.673Z,70.80
2019-01-25T06:01:30.672Z,70.06
2019-01-25T06:02:30.658Z,70.14
2019-01-25T06:03:30.647Z,70.06
2019-01-25T06:04:30.633Z,70.84
2019-01-25T06:05:30.678Z,71.04
2019-01-25T06:06:30.612Z,70.94
2019-01-25T06:07:30.611Z,71.26
2019-01-25T06:08:30.654Z,71.54
2019-01-25T06:09:30.587Z,71.26
2019-01-25T06:10:30.578Z,71.33
2019-01-25T06:11:35.436Z,71.47
2019-01-25T06:12:31.551Z,71.04
2019-01-25T06:13:30.548Z,70.10
2019-01-25T06:14:30.529Z,70.10
2019-01-25T06:15:30.526Z,71.26
2019-01-25T06:16:30.513Z,69.99
2019-01-25T06:17:30.559Z,70.20
2019-01-25T06:18:30.498Z,70.31
2019-01-25T06:19:30.504Z,70.52
2019-01-25T06:20:30.503Z,70.55
2019-01-25T06:21:30.466Z,71.82
2019-01-25T06:22:30.457Z,72.03
2019-01-25T06:23:30.503Z,71.92
2019-01-25T06:24:30.440Z,72.14
2019-01-25T06:25:30.425Z,72.27
2019-01-25T06:26:30.418Z,72.83
2019-01-25T06:27:30.405Z,72.38
2019-01-25T06:28:30.393Z,72.49
2019-01-25T06:29:30.443Z,72.27
2019-01-25T06:30:30.366Z,71.95
2019-01-25T06:31:30.363Z,71.29
2019-01-25T06:32:30.350Z,71.61
2019-01-25T06:33:30.346Z,71.39
2019-01-25T06:34:30.333Z,71.61
2019-01-25T06:35:30.360Z,71.82
2019-01-25T06:36:30.316Z,72.14
2019-01-25T06:37:30.305Z,71.82
2019-01-25T06:38:30.289Z,71.92
2019-01-25T06:39:30.318Z,72.45
2019-01-25T06:40:30.277Z,72.38
2019-01-25T06:41:30.305Z,72.91
2019-01-25T06:42:30.244Z,73.22
2019-01-25T06:43:30.243Z,72.94
2019-01-25T06:44:30.224Z,73.86
2019-01-25T06:45:30.223Z,73.86
2019-01-25T06:46:30.202Z,72.88
2019-01-25T06:47:30.250Z,73.08
2019-01-25T06:48:30.186Z,72.14
2019-01-25T06:49:30.173Z,71.82
2019-01-25T06:50:30.166Z,72.56
2019-01-25T06:51:30.157Z,71.71
2019-01-25T06:52:30.144Z,71.92
2019-01-25T06:53:30.182Z,71.89
2019-01-25T06:54:30.119Z,70.97
2019-01-25T06:55:30.116Z,71.68
2019-01-25T06:56:30.102Z,71.89
2019-01-25T06:57:30.093Z,71.15
2019-01-25T06:58:30.084Z,71.78
2019-01-25T06:59:30.122Z,71.58
2019-01-25T07:00:30.067Z,71.58
2019-01-25T07:01:30.050Z,72.17
2019-01-25T07:02:30.043Z,71.78
2019-01-25T07:03:30.041Z,71.75
2019-01-25T07:04:30.021Z,71.58
2019-01-25T07:05:30.070Z,70.91
2019-01-25T07:06:29.998Z,70.73
2019-01-25T07:07:29.992Z,71.01
2019-01-25T07:08:29.987Z,71.86
2019-01-25T07:09:29.970Z,71.97
2019-01-25T07:10:29.962Z,70.59
2019-01-25T07:11:29.998Z,70.17
2019-01-25T07:12:29.947Z,70.14
2019-01-25T07:13:29.934Z,70.38
2019-01-25T07:14:29.921Z,69.75
2019-01-25T07:15:29.909Z,70.06
2019-01-25T07:16:29.899Z,70.17
2019-01-25T07:17:29.935Z,69.96
2019-01-25T07:18:29.880Z,70.06
2019-01-25T07:19:29.876Z,70.38
2019-01-25T07:20:29.863Z,70.35
2019-01-25T07:21:29.845Z,70.35
2019-01-25T07:22:29.837Z,70.56
2019-01-25T07:23:29.880Z,70.35
2019-01-25T07:24:29.822Z,70.35
2019-01-25T07:25:29.811Z,69.71
2019-01-25T07:26:29.799Z,69.93
2019-01-25T07:27:29.786Z,69.82
2019-01-25T07:28:29.782Z,70.03
2019-01-25T07:29:29.812Z,70.25
2019-01-25T07:30:29.773Z,69.68
2019-01-25T07:31:29.890Z,70.14
2019-01-25T07:32:29.739Z,69.79
2019-01-25T07:33:29.723Z,70.00
2019-01-25T07:34:29.723Z,69.68
2019-01-25T07:35:29.772Z,69.58
2019-01-25T07:36:29.852Z,69.61
2019-01-25T07:37:29.725Z,70.45
2019-01-25T07:38:29.708Z,70.17
2019-01-25T07:39:29.923Z,70.17
2019-01-25T07:40:29.670Z,70.17
2019-01-25T07:41:29.719Z,71.23
2019-01-25T07:42:29.634Z,70.06
2019-01-25T07:43:29.626Z,70.35
2019-01-25T07:44:29.615Z,70.14
2019-01-25T07:45:29.604Z,69.37
2019-01-25T07:46:29.597Z,69.71
2019-01-25T07:47:29.670Z,69.48
2019-01-25T07:48:29.580Z,69.79
2019-01-25T07:49:29.567Z,70.07
2019-01-25T07:50:29.557Z,69.13
2019-01-25T07:51:29.544Z,69.55
2019-01-25T07:52:29.530Z,69.23
2019-01-25T07:53:29.624Z,68.71
2019-01-25T07:54:29.706Z,69.45
2019-01-25T07:55:29.504Z,67.97
2019-01-25T07:56:29.518Z,68.18
2019-01-25T07:57:29.482Z,69.13
2019-01-25T07:58:29.513Z,69.02
2019-01-25T07:59:29.514Z,69.13
2019-01-25T08:00:29.465Z,69.45
2019-01-25T08:01:29.445Z,68.29
2019-01-25T08:02:29.433Z,67.65
2019-01-25T08:03:29.433Z,67.83
2019-01-25T08:04:29.434Z,68.04
2019-01-25T08:05:29.450Z,67.72
2019-01-25T08:06:29.421Z,67.62
2019-01-25T08:07:29.386Z,66.99
2019-01-25T08:08:29.409Z,66.36
2019-01-25T08:09:29.370Z,67.27
2019-01-25T08:10:29.371Z,67.59
2019-01-25T08:11:29.405Z,67.17
2019-01-25T08:12:29.404Z,67.14
2019-01-25T08:13:29.321Z,67.14
2019-01-25T08:14:29.312Z,66.09
2019-01-25T08:15:29.325Z,66.30
2019-01-25T08:16:29.314Z,65.45
2019-01-25T08:17:29.334Z,65.59
2019-01-25T08:18:29.270Z,64.51
2019-01-25T08:19:29.257Z,65.28
2019-01-25T08:20:29.300Z,65.48
2019-01-25T08:21:29.235Z,66.30
2019-01-25T08:22:29.225Z,66.09
2019-01-25T08:23:29.273Z,64.83
2019-01-25T08:24:29.222Z,65.32
2019-01-25T08:25:29.209Z,64.83
2019-01-25T08:26:29.199Z,65.53
2019-01-25T08:27:29.177Z,65.74
2019-01-25T08:28:29.172Z,66.69
2019-01-25T08:29:29.233Z,66.79
2019-01-25T08:30:29.159Z,65.81
2019-01-25T08:31:29.138Z,64.69
2019-01-25T08:32:29.165Z,65.11
2019-01-25T08:33:29.116Z,64.58
2019-01-25T08:34:29.103Z,65.74
2019-01-25T08:35:29.188Z,65.95
2019-01-25T08:36:29.081Z,65.14
2019-01-25T08:37:29.079Z,64.83
2019-01-25T08:38:29.068Z,64.51
2019-01-25T08:39:29.065Z,64.48
2019-01-25T08:40:29.044Z,64.69
2019-01-25T08:41:29.084Z,65.42
2019-01-25T08:42:29.026Z,65.89
2019-01-25T08:43:29.014Z,65.89
2019-01-25T08:44:29.220Z,66.28
2019-01-25T08:45:29.018Z,64.70
2019-01-25T08:46:29.065Z,63.21
2019-01-25T08:47:29.029Z,62.94
2019-01-25T08:48:29.249Z,59.95
2019-01-25T08:49:28.993Z,59.19
2019-01-25T08:50:28.962Z,59.16
2019-01-25T08:51:28.963Z,58.40
2019-01-25T08:52:28.940Z,56.02
2019-01-25T08:53:28.992Z,54.61
2019-01-25T08:54:28.897Z,52.37
2019-01-25T08:55:28.927Z,52.01
2019-01-25T08:56:28.871Z,51.44
2019-01-25T08:57:29.043Z,50.67
2019-01-25T08:58:28.873Z,49.37
2019-01-25T08:59:28.893Z,46.34
2019-01-25T09:00:28.836Z,45.42
2019-01-25T09:01:28.827Z,46.63
2019-01-25T09:02:28.814Z,48.68
2019-01-25T09:03:28.804Z,50.83
2019-01-25T09:04:28.795Z,52.03
2019-01-25T09:05:28.831Z,52.70
2019-01-25T09:06:28.779Z,54.43
2019-01-25T09:07:28.764Z,54.97
2019-01-25T09:08:28.754Z,55.71
2019-01-25T09:09:28.743Z,56.65
2019-01-25T09:10:28.732Z,56.65
2019-01-25T09:11:28.832Z,56.57
2019-01-25T09:12:28.711Z,56.99
2019-01-25T09:13:28.701Z,57.40
2019-01-25T09:14:28.690Z,57.54
2019-01-25T09:15:28.679Z,56.26
2019-01-25T09:16:28.676Z,55.94
2019-01-25T09:17:28.711Z,54.87
2019-01-25T09:18:28.651Z,54.82
2019-01-25T09:19:28.638Z,52.00
2019-01-25T09:20:28.633Z,52.31
2019-01-25T09:21:28.618Z,53.78
2019-01-25T09:22:28.606Z,52.61
2019-01-25T09:23:28.638Z,51.77
2019-01-25T09:24:28.583Z,49.99
2019-01-25T09:25:28.580Z,49.09
2019-01-25T09:26:28.560Z,48.74
2019-01-25T09:27:28.551Z,48.30
2019-01-25T09:28:28.544Z,48.74
2019-01-25T09:29:28.589Z,49.77
2019-01-25T09:30:28.519Z,48.84
2019-01-25T09:31:28.512Z,49.49
2019-01-25T09:32:28.506Z,47.46
2019-01-25T09:33:28.497Z,46.86
2019-01-25T09:34:28.481Z,46.78
2019-01-25T09:35:28.522Z,48.21
2019-01-25T09:36:28.461Z,46.63
2019-01-25T09:37:28.455Z,46.96
2019-01-25T09:38:28.439Z,46.28
2019-01-25T09:39:28.483Z,46.61
2019-01-25T09:40:28.416Z,45.03
2019-01-25T09:41:28.455Z,46.50
2019-01-25T09:42:31.147Z,48.90
2019-01-25T09:43:28.388Z,49.55
2019-01-25T09:44:28.375Z,49.67
2019-01-25T09:45:28.366Z,49.44
2019-01-25T09:46:28.357Z,49.59
2019-01-25T09:47:28.397Z,48.44
2019-01-25T09:48:28.331Z,48.43
2019-01-25T09:49:28.326Z,47.71
2019-01-25T09:50:28.319Z,44.31
2019-01-25T09:51:28.301Z,43.60
2019-01-25T09:52:35.384Z,41.06
2019-01-25T09:53:28.276Z,38.50
2019-01-25T09:54:28.270Z,36.82
2019-01-25T09:55:28.258Z,35.87
2019-01-25T09:56:28.252Z,34.72
2019-01-25T09:57:28.250Z,34.61
2019-01-25T09:58:28.277Z,35.19
2019-01-25T09:59:28.213Z,33.73
2019-01-25T10:00:28.207Z,33.41
2019-01-25T10:01:28.194Z,34.75
2019-01-25T10:02:28.191Z,33.12
2019-01-25T10:03:28.175Z,35.21
2019-01-25T10:04:28.219Z,36.54
2019-01-25T10:05:28.162Z,36.63
2019-01-25T10:06:28.142Z,36.63
2019-01-25T10:07:28.146Z,34.25
2019-01-25T10:08:28.130Z,34.16
2019-01-25T10:09:28.114Z,35.24
2019-01-25T10:10:28.153Z,35.27
2019-01-25T10:11:28.088Z,36.44
2019-01-25T10:12:28.075Z,36.25
2019-01-25T10:13:28.067Z,36.56
2019-01-25T10:14:28.057Z,36.73
2019-01-25T10:15:28.051Z,37.85
2019-01-25T10:16:28.085Z,41.35
2019-01-25T10:17:28.025Z,43.13
2019-01-25T10:18:28.013Z,43.99
2019-01-25T10:19:28.006Z,44.30
2019-01-25T10:20:27.993Z,45.05
2019-01-25T10:21:27.983Z,47.25
2019-01-25T10:22:28.025Z,46.94
2019-01-25T10:23:27.958Z,47.15
2019-01-25T10:24:27.942Z,45.30
2019-01-25T10:25:27.935Z,46.76
2019-01-25T10:26:27.930Z,48.32
2019-01-25T10:27:27.916Z,47.56
2019-01-25T10:28:27.927Z,46.94
2019-01-25T10:29:27.894Z,45.26
2019-01-25T10:30:27.890Z,47.13
2019-01-25T10:31:27.876Z,44.82
2019-01-25T10:32:27.864Z,45.53
2019-01-25T10:33:27.857Z,45.38
2019-01-25T10:34:27.865Z,44.45
2019-01-25T10:35:27.829Z,45.78
2019-01-25T10:36:27.826Z,45.98
2019-01-25T10:37:27.812Z,45.26
2019-01-25T10:38:27.803Z,45.48
2019-01-25T10:39:27.804Z,47.46
2019-01-25T10:40:27.832Z,46.86
2019-01-25T10:41:27.773Z,47.69
2019-01-25T10:42:27.755Z,46.55
2019-01-25T10:43:27.747Z,46.55
2019-01-25T10:44:27.745Z,48.33
2019-01-25T10:45:27.730Z,48.23
2019-01-25T10:46:27.765Z,48.96
2019-01-25T10:47:27.714Z,49.58
2019-01-25T10:48:27.743Z,49.60
2019-01-25T10:49:27.685Z,49.50
2019-01-25T10:50:27.704Z,48.46
2019-01-25T10:51:27.701Z,48.25
2019-01-25T10:52:27.710Z,47.19
2019-01-25T10:53:27.646Z,47.00
2019-01-25T10:54:27.641Z,48.05
2019-01-25T10:55:27.641Z,47.83
2019-01-25T10:56:27.619Z,50.02
2019-01-25T10:57:27.613Z,48.44
2019-01-25T10:58:27.641Z,49.60
2019-01-25T10:59:27.580Z,49.19
2019-01-25T11:00:27.568Z,49.52
2019-01-25T11:01:27.555Z,50.35
2019-01-25T11:02:27.545Z,49.84
2019-01-25T11:03:27.550Z,50.85
2019-01-25T11:04:27.574Z,49.16
2019-01-25T11:05:27.520Z,49.58
2019-01-25T11:06:27.507Z,49.46
2019-01-25T11:07:27.495Z,49.35
2019-01-25T11:08:27.487Z,48.21
2019-01-25T11:09:27.471Z,48.72
2019-01-25T11:10:27.486Z,49.77
2019-01-25T11:11:27.448Z,49.54
2019-01-25T11:12:27.443Z,48.12
2019-01-25T11:13:27.432Z,46.75
2019-01-25T11:14:27.423Z,47.27
2019-01-25T11:15:27.408Z,46.31
2019-01-25T11:16:27.416Z,44.41
2019-01-25T11:17:27.388Z,44.59
2019-01-25T11:18:27.375Z,44.04
2019-01-25T11:19:27.369Z,43.48
2019-01-25T11:20:27.358Z,40.14
2019-01-25T11:21:27.343Z,40.28
2019-01-25T11:22:27.352Z,44.14
2019-01-25T11:23:27.333Z,45.21
2019-01-25T11:24:27.315Z,44.31
2019-01-25T11:25:27.301Z,42.98
2019-01-25T11:26:27.298Z,43.00
2019-01-25T11:27:27.282Z,43.85
2019-01-25T11:28:27.291Z,43.23
2019-01-25T11:29:27.258Z,44.28
2019-01-25T11:30:27.251Z,43.87
2019-01-25T11:31:27.241Z,44.07
2019-01-25T11:32:27.236Z,44.59
2019-01-25T11:33:27.217Z,47.39
2019-01-25T11:34:27.223Z,48.12
2019-01-25T11:35:27.201Z,48.25
2019-01-25T11:36:27.188Z,47.31
2019-01-25T11:37:27.175Z,47.94
2019-01-25T11:38:27.170Z,46.59
2019-01-25T11:39:27.147Z,45.03
2019-01-25T11:40:27.165Z,45.55
2019-01-25T11:41:27.134Z,45.98
2019-01-25T11:42:27.141Z,46.30
2019-01-25T11:43:27.118Z,45.97
2019-01-25T11:44:27.105Z,47.42
2019-01-25T11:45:27.091Z,46.38
2019-01-25T11:46:27.117Z,46.25
2019-01-25T11:47:27.066Z,45.11
2019-01-25T11:48:27.060Z,45.53
2019-01-25T11:49:27.048Z,45.42
2019-01-25T11:50:27.044Z,45.21
2019-01-25T11:51:27.033Z,44.38
2019-01-25T11:52:27.031Z,45.32
2019-01-25T11:53:27.005Z,44.80
2019-01-25T11:54:26.989Z,45.45
2019-01-25T11:55:26.986Z,44.62
2019-01-25T11:56:26.970Z,47.00
2019-01-25T11:57:26.960Z,46.17
2019-01-25T11:58:26.976Z,45.34
2019-01-25T11:59:26.942Z,45.55
2019-01-25T12:00:26.947Z,46.07
2019-01-25T12:01:26.918Z,45.36
2019-01-25T12:02:26.910Z,48.16
2019-01-25T12:03:26.896Z,45.59
2019-01-25T12:04:26.908Z,45.05
2019-01-25T12:05:26.935Z,46.61
2019-01-25T12:06:26.864Z,48.08
2019-01-25T12:07:26.863Z,47.44
2019-01-25T12:08:26.848Z,46.19
2019-01-25T12:09:26.835Z,46.92
2019-01-25T12:10:26.845Z,48.47
2019-01-25T12:11:26.819Z,48.06
2019-01-25T12:12:26.806Z,45.15
2019-01-25T12:13:26.806Z,45.69
2019-01-25T12:14:26.788Z,47.15
2019-01-25T12:15:26.774Z,47.13
2019-01-25T12:16:26.781Z,45.05
2019-01-25T12:17:26.752Z,47.13
2019-01-25T12:18:26.762Z,46.71
2019-01-25T12:19:26.730Z,46.92
2019-01-25T12:20:26.716Z,47.05
2019-01-25T12:21:26.710Z,45.79
2019-01-25T12:22:26.763Z,46.42
2019-01-25T12:23:26.699Z,46.53
2019-01-25T12:24:26.679Z,47.77
2019-01-25T12:25:26.671Z,47.75
2019-01-25T12:26:26.661Z,45.28
2019-01-25T12:27:26.645Z,45.28
2019-01-25T12:28:26.654Z,46.84
2019-01-25T12:29:26.680Z,48.19
2019-01-25T12:30:26.613Z,48.50
2019-01-25T12:31:26.606Z,49.33
2019-01-25T12:32:26.599Z,49.43
2019-01-25T12:33:26.583Z,47.33
2019-01-25T12:34:26.590Z,47.56
2019-01-25T12:35:26.566Z,48.29
2019-01-25T12:36:26.549Z,47.96
2019-01-25T12:37:26.545Z,46.81
2019-01-25T12:38:26.564Z,45.05
2019-01-25T12:39:26.520Z,47.88
2019-01-25T12:40:26.519Z,46.21
2019-01-25T12:41:26.497Z,45.15
2019-01-25T12:42:26.486Z,44.84
2019-01-25T12:43:26.485Z,45.15
2019-01-25T12:44:26.465Z,46.81
2019-01-25T12:45:26.454Z,46.71
2019-01-25T12:46:26.460Z,47.64
2019-01-25T12:47:26.440Z,48.58
2019-01-25T12:48:26.424Z,47.75
2019-01-25T12:49:26.408Z,48.37
2019-01-25T12:50:26.402Z,47.75
2019-01-25T12:51:26.385Z,47.83
2019-01-25T12:52:26.408Z,48.14